createdAt,value
2022-10-31T00:01:33.108Z,24.87
2022-10-31T00:04:00.193Z,24.53
2022-10-31T00:06:27.604Z,21.13
2022-10-31T00:08:57.126Z,14.73
2022-10-31T00:11:24.721Z,18.20
2022-10-31T00:13:51.694Z,18.00
2022-10-31T00:16:20.744Z,19.23
2022-10-31T00:18:56.938Z,14.47
2022-10-31T00:21:24.499Z,15.50
2022-10-31T00:23:51.406Z,13.70
2022-10-31T00:26:19.051Z,13.52
2022-10-31T00:28:46.346Z,20.60
2022-10-31T00:31:14.660Z,20.77
2022-10-31T00:33:42.220Z,16.83
2022-10-31T00:36:15.918Z,18.75
2022-10-31T00:38:43.674Z,14.60
2022-10-31T00:41:11.601Z,19.20
2022-10-31T00:43:41.917Z,20.13
2022-10-31T00:46:09.616Z,16.47
2022-10-31T00:48:36.506Z,15.65
2022-10-31T00:51:03.815Z,13.77
2022-10-31T00:53:30.808Z,14.90
2022-10-31T00:55:57.753Z,20.63
2022-10-31T00:58:24.750Z,18.20
2022-10-31T01:00:57.498Z,13.93
2022-10-31T01:03:30.164Z,15.40
2022-10-31T01:06:05.297Z,20.23
2022-10-31T01:08:33.472Z,18.90
2022-10-31T01:11:04.690Z,17.75
2022-10-31T01:13:34.173Z,18.95
2022-10-31T01:16:04.380Z,14.47
2022-10-31T01:18:33.947Z,19.85
2022-10-31T01:21:23.431Z,15.47
2022-10-31T01:23:51.285Z,19.08
2022-10-31T01:26:24.118Z,17.73
2022-10-31T01:29:02.176Z,15.33
2022-10-31T01:31:32.390Z,16.77
2022-10-31T01:34:00.118Z,14.83
2022-10-31T01:36:33.171Z,15.73
2022-10-31T01:39:04.130Z,16.17
2022-10-31T01:41:35.641Z,14.23
2022-10-31T01:44:24.723Z,18.43
2022-10-31T01:46:58.043Z,20.70
2022-10-31T01:49:39.552Z,15.63
2022-10-31T01:52:15.258Z,17.00
2022-10-31T01:54:51.462Z,18.23
2022-10-31T01:57:20.103Z,17.83
2022-10-31T01:59:52.286Z,14.13
2022-10-31T02:02:20.492Z,14.37
2022-10-31T02:04:48.944Z,15.00
2022-10-31T02:07:26.422Z,18.13
2022-10-31T02:09:54.806Z,19.13
2022-10-31T02:12:22.409Z,15.33
2022-10-31T02:14:49.560Z,21.30
2022-10-31T02:17:16.597Z,18.07
2022-10-31T02:20:01.639Z,20.83
2022-10-31T02:22:40.788Z,17.17
2022-10-31T02:25:29.748Z,18.53
2022-10-31T02:28:25.623Z,21.10
2022-10-31T02:30:58.415Z,15.63
2022-10-31T02:33:44.342Z,16.13
2022-10-31T02:36:16.499Z,16.73
2022-10-31T02:38:52.603Z,13.87
2022-10-31T02:41:41.349Z,18.17
2022-10-31T02:44:27.995Z,18.77
2022-10-31T02:47:01.064Z,17.47
2022-10-31T02:49:44.158Z,22.00
2022-10-31T02:52:18.202Z,20.10
2022-10-31T02:54:46.610Z,22.07
2022-10-31T02:57:16.885Z,23.27
2022-10-31T02:59:50.205Z,27.53
2022-10-31T03:02:38.567Z,18.57
2022-10-31T03:05:21.535Z,22.07
2022-10-31T03:08:19.627Z,22.60
2022-10-31T03:10:58.272Z,37.77
2022-10-31T03:13:25.552Z,36.27
2022-10-31T03:16:26.539Z,43.83
2022-10-31T03:19:01.346Z,41.73
2022-10-31T03:21:40.907Z,23.87
2022-10-31T03:24:10.695Z,26.43
2022-10-31T03:26:42.258Z,19.80
2022-10-31T03:29:14.422Z,18.37
2022-10-31T03:31:48.357Z,20.50
2022-10-31T03:34:18.783Z,18.47
2022-10-31T03:36:47.794Z,19.63
2022-10-31T03:39:17.523Z,15.50
2022-10-31T03:41:48.340Z,14.23
2022-10-31T03:44:20.150Z,14.40
2022-10-31T03:46:54.566Z,12.97
2022-10-31T03:49:22.534Z,13.80
2022-10-31T03:52:22.860Z,19.33
2022-10-31T03:55:05.366Z,15.60
2022-10-31T03:57:45.221Z,18.37
2022-10-31T04:00:16.957Z,18.43
2022-10-31T04:03:28.658Z,17.37
2022-10-31T04:06:01.518Z,20.00
2022-10-31T04:08:32.415Z,15.30
2022-10-31T04:11:01.740Z,16.73
2022-10-31T04:13:32.421Z,17.63
2022-10-31T04:16:05.037Z,14.80
2022-10-31T04:18:33.147Z,14.23
2022-10-31T04:21:05.452Z,19.57
2022-10-31T04:23:33.183Z,16.07
2022-10-31T04:26:03.148Z,15.03
2022-10-31T04:28:30.252Z,17.20
2022-10-31T04:30:57.630Z,17.83
2022-10-31T04:33:24.532Z,14.10
2022-10-31T04:35:51.422Z,15.80
2022-10-31T04:38:18.783Z,15.87
2022-10-31T04:40:46.848Z,22.47
2022-10-31T04:43:40.115Z,17.93
2022-10-31T04:46:06.998Z,21.80
2022-10-31T04:48:34.024Z,17.07
2022-10-31T04:51:03.083Z,19.10
2022-10-31T04:53:30.397Z,17.27
2022-10-31T04:56:29.950Z,20.87
2022-10-31T04:59:00.005Z,18.20
2022-10-31T05:01:30.498Z,22.00
2022-10-31T05:03:59.036Z,21.63
2022-10-31T05:06:25.921Z,18.87
2022-10-31T05:08:53.348Z,14.40
2022-10-31T05:11:20.524Z,16.33
2022-10-31T05:13:47.422Z,18.60
2022-10-31T05:16:14.321Z,18.50
2022-10-31T05:19:00.102Z,18.73
2022-10-31T05:21:45.621Z,16.00
2022-10-31T05:24:12.511Z,13.70
2022-10-31T05:26:41.422Z,17.43
2022-10-31T05:29:08.280Z,13.33
2022-10-31T05:31:36.126Z,20.40
2022-10-31T05:34:05.028Z,73.50
2022-10-31T05:36:50.416Z,55.27
2022-10-31T05:39:19.595Z,31.37
2022-10-31T05:41:49.274Z,31.53
2022-10-31T05:44:28.282Z,23.87
2022-10-31T05:47:12.786Z,18.80
2022-10-31T05:49:58.460Z,21.00
2022-10-31T05:52:46.495Z,18.93
2022-10-31T05:55:24.775Z,20.13
2022-10-31T05:58:12.532Z,19.47
2022-10-31T06:00:42.569Z,18.77
2022-10-31T06:03:11.369Z,20.93
2022-10-31T06:05:57.905Z,19.30
2022-10-31T06:08:29.969Z,17.07
2022-10-31T06:11:00.134Z,20.90
2022-10-31T06:13:45.721Z,22.07
2022-10-31T06:16:19.301Z,22.30
2022-10-31T06:18:47.537Z,28.10
2022-10-31T06:21:17.965Z,28.00
2022-10-31T06:23:46.697Z,25.93
2022-10-31T06:26:33.468Z,29.17
2022-10-31T06:29:04.067Z,19.23
2022-10-31T06:31:56.052Z,19.00
2022-10-31T06:34:22.951Z,17.07
2022-10-31T06:36:49.959Z,24.10
2022-10-31T06:39:19.471Z,17.97
2022-10-31T06:41:49.305Z,24.07
2022-10-31T06:44:19.300Z,22.03
2022-10-31T06:46:55.323Z,21.40
2022-10-31T06:49:42.469Z,16.77
2022-10-31T06:52:13.664Z,18.33
2022-10-31T06:54:40.983Z,20.53
2022-10-31T06:57:08.332Z,18.57
2022-10-31T06:59:35.218Z,21.97
2022-10-31T07:02:34.622Z,20.27
2022-10-31T07:05:01.739Z,22.23
2022-10-31T07:07:28.764Z,16.20
2022-10-31T07:09:55.833Z,18.57
2022-10-31T07:12:37.718Z,21.23
2022-10-31T07:15:05.403Z,17.00
2022-10-31T07:17:32.281Z,14.37
2022-10-31T07:20:00.895Z,15.07
2022-10-31T07:22:34.817Z,16.93
2022-10-31T07:25:01.854Z,15.97
2022-10-31T07:27:47.555Z,17.23
2022-10-31T07:30:15.387Z,17.07
2022-10-31T07:32:46.498Z,16.43
2022-10-31T07:35:23.234Z,15.47
2022-10-31T07:37:57.232Z,18.23
2022-10-31T07:40:25.163Z,18.10
2022-10-31T07:42:55.000Z,20.43
2022-10-31T07:45:52.257Z,16.10
2022-10-31T07:48:37.530Z,15.60
2022-10-31T07:51:24.481Z,19.83
2022-10-31T07:54:20.612Z,18.02
2022-10-31T07:56:48.385Z,20.20
2022-10-31T07:59:15.327Z,14.93
2022-10-31T08:01:42.235Z,16.07
2022-10-31T08:04:27.686Z,15.37
2022-10-31T08:07:13.265Z,16.83
2022-10-31T08:09:45.027Z,18.73
2022-10-31T08:12:31.667Z,18.95
2022-10-31T08:14:58.900Z,14.80
2022-10-31T08:17:25.898Z,15.17
2022-10-31T08:19:58.427Z,23.13
2022-10-31T08:22:30.876Z,22.10
2022-10-31T08:24:59.173Z,20.80
2022-10-31T08:27:26.185Z,19.92
2022-10-31T08:29:54.902Z,19.88
2022-10-31T08:32:23.752Z,23.05
2022-10-31T08:34:53.269Z,22.95
2022-10-31T08:37:38.955Z,23.73
2022-10-31T08:40:07.718Z,14.98
2022-10-31T08:42:35.933Z,18.35
2022-10-31T08:45:03.285Z,23.67
2022-10-31T08:47:32.212Z,18.00
2022-10-31T08:49:59.208Z,26.58
2022-10-31T08:52:51.098Z,19.77
2022-10-31T08:55:14.199Z,16.33
2022-10-31T08:58:04.150Z,30.42
2022-10-31T09:00:40.074Z,23.25
2022-10-31T09:03:16.239Z,21.38
2022-10-31T09:05:43.806Z,17.83
2022-10-31T09:08:16.691Z,19.75
2022-10-31T09:10:46.423Z,19.60
2022-10-31T09:13:21.422Z,18.83
2022-10-31T09:16:08.397Z,19.77
2022-10-31T09:18:36.093Z,20.98
2022-10-31T09:21:03.076Z,16.02
2022-10-31T09:23:32.927Z,20.42
2022-10-31T09:26:02.242Z,22.50
2022-10-31T09:28:38.006Z,21.35
2022-10-31T09:31:09.156Z,20.50
2022-10-31T09:33:50.732Z,20.75
2022-10-31T09:36:39.306Z,19.75
2022-10-31T09:39:13.274Z,17.27
2022-10-31T09:41:46.021Z,22.05
2022-10-31T09:44:24.962Z,21.23
2022-10-31T09:47:03.248Z,20.38
2022-10-31T09:49:34.362Z,16.58
2022-10-31T09:52:19.583Z,18.73
2022-10-31T09:54:53.177Z,23.40
2022-10-31T09:57:29.074Z,22.55
2022-10-31T09:59:57.442Z,24.27
2022-10-31T10:02:42.743Z,17.67
2022-10-31T10:05:16.176Z,22.75
2022-10-31T10:08:00.471Z,21.98
2022-10-31T10:11:08.195Z,18.60
2022-10-31T10:14:45.571Z,21.02
2022-10-31T10:17:34.033Z,21.67
2022-10-31T10:20:06.814Z,21.92
2022-10-31T10:23:03.060Z,30.15
2022-10-31T10:25:41.822Z,26.02
2022-10-31T10:28:24.382Z,23.80
2022-10-31T10:30:57.872Z,27.95
2022-10-31T10:33:43.761Z,27.58
2022-10-31T10:36:18.916Z,28.48
2022-10-31T10:39:19.634Z,29.13
2022-10-31T10:42:08.247Z,28.05
2022-10-31T10:44:58.377Z,25.63
2022-10-31T10:47:40.045Z,30.92
2022-10-31T10:50:26.163Z,31.25
2022-10-31T10:53:22.162Z,29.70
2022-10-31T10:56:21.144Z,28.58
2022-10-31T10:58:56.978Z,30.45
2022-10-31T11:01:24.166Z,34.97
2022-10-31T11:03:51.061Z,33.13
2022-10-31T11:06:27.149Z,35.53
2022-10-31T11:08:54.409Z,36.63
2022-10-31T11:11:31.185Z,36.47
2022-10-31T11:14:13.289Z,32.88
2022-10-31T11:16:44.174Z,41.58
2022-10-31T11:19:22.114Z,34.60
2022-10-31T11:21:54.106Z,34.22
2022-10-31T11:24:29.163Z,37.22
2022-10-31T11:27:17.845Z,37.85
2022-10-31T11:29:44.949Z,35.03
2022-10-31T11:32:24.868Z,36.50
2022-10-31T11:34:59.208Z,33.63
2022-10-31T11:37:33.140Z,35.95
2022-10-31T11:40:03.928Z,38.80
2022-10-31T11:42:41.455Z,34.78
2022-10-31T11:45:35.712Z,35.25
2022-10-31T11:48:20.971Z,43.60
2022-10-31T11:50:59.128Z,35.85
2022-10-31T11:53:33.817Z,29.42
2022-10-31T11:56:24.710Z,34.13
2022-10-31T11:59:06.593Z,38.90
2022-10-31T12:01:36.966Z,33.03
2022-10-31T12:04:09.871Z,34.05
2022-10-31T12:06:38.989Z,32.80
2022-10-31T12:09:22.149Z,32.25
2022-10-31T12:12:04.881Z,36.10
2022-10-31T12:14:41.418Z,37.30
2022-10-31T12:17:25.603Z,33.78
2022-10-31T12:20:11.921Z,33.83
2022-10-31T12:23:16.156Z,38.75
2022-10-31T12:25:59.897Z,41.30
2022-10-31T12:28:29.709Z,37.53
2022-10-31T12:31:27.025Z,32.35
2022-10-31T12:34:09.155Z,31.35
2022-10-31T12:36:38.768Z,35.58
2022-10-31T12:39:56.986Z,37.42
2022-10-31T12:42:45.574Z,39.78
2022-10-31T12:45:27.600Z,33.25
2022-10-31T12:48:11.356Z,32.85
2022-10-31T12:51:15.574Z,35.78
2022-10-31T12:54:03.918Z,38.17
2022-10-31T12:56:42.981Z,37.05
2022-10-31T12:59:36.421Z,39.63
2022-10-31T13:02:24.282Z,37.63
2022-10-31T13:05:17.161Z,35.15
2022-10-31T13:07:56.032Z,37.75
2022-10-31T13:10:32.171Z,36.60
2022-10-31T13:13:11.213Z,34.55
2022-10-31T13:15:49.191Z,39.15
2022-10-31T13:18:28.769Z,33.03
2022-10-31T13:20:59.101Z,34.60
2022-10-31T13:23:50.489Z,35.15
2022-10-31T13:26:49.912Z,31.63
2022-10-31T13:29:28.367Z,32.88
2022-10-31T13:31:58.791Z,34.58
2022-10-31T13:34:34.437Z,37.80
2022-10-31T13:37:18.580Z,31.30
2022-10-31T13:40:01.872Z,36.58
2022-10-31T13:43:16.184Z,34.63
2022-10-31T13:45:51.804Z,33.50
2022-10-31T13:48:26.076Z,30.60
2022-10-31T13:51:02.964Z,30.73
2022-10-31T13:53:37.498Z,32.78
2022-10-31T13:56:09.634Z,34.63
2022-10-31T13:58:37.171Z,29.73
2022-10-31T14:01:16.211Z,30.70
2022-10-31T14:06:55.472Z,29.55
2022-10-31T14:09:38.711Z,31.67
2022-10-31T14:12:15.476Z,34.80
2022-10-31T14:14:52.326Z,37.17
2022-10-31T14:17:28.819Z,34.22
2022-10-31T14:20:22.682Z,45.63
2022-10-31T14:22:50.570Z,29.63
2022-10-31T14:25:36.605Z,30.80
2022-10-31T14:28:23.595Z,33.67
2022-10-31T14:30:55.556Z,30.98
2022-10-31T14:33:24.437Z,36.00
2022-10-31T14:36:00.047Z,33.03
2022-10-31T14:39:05.747Z,34.78
2022-10-31T14:41:48.851Z,33.72
2022-10-31T14:44:43.927Z,34.45
2022-10-31T14:47:26.431Z,34.90
2022-10-31T14:50:18.285Z,32.25
2022-10-31T14:52:51.349Z,33.30
2022-10-31T14:55:19.706Z,33.95
2022-10-31T14:57:57.019Z,32.03
2022-10-31T15:00:26.609Z,36.63
2022-10-31T15:03:08.874Z,33.33
2022-10-31T15:05:43.405Z,34.50
2022-10-31T15:08:40.550Z,35.38
2022-10-31T15:11:27.225Z,31.50
2022-10-31T15:13:59.050Z,31.60
2022-10-31T15:16:40.426Z,38.72
2022-10-31T15:19:11.189Z,30.00
2022-10-31T15:21:43.360Z,38.33
2022-10-31T15:24:16.949Z,38.83
2022-10-31T15:26:48.420Z,39.90
2022-10-31T15:29:24.011Z,31.00
2022-10-31T15:31:55.003Z,38.53
2022-10-31T15:34:44.575Z,34.17
2022-10-31T15:37:19.398Z,31.08
2022-10-31T15:39:47.956Z,30.08
2022-10-31T15:42:38.609Z,30.10
2022-10-31T15:45:10.156Z,37.13
2022-10-31T15:47:38.050Z,32.63
2022-10-31T15:50:20.346Z,33.03
2022-10-31T15:52:50.951Z,30.13
2022-10-31T15:55:22.625Z,28.67
2022-10-31T15:57:55.090Z,30.90
2022-10-31T16:00:30.426Z,30.08
2022-10-31T16:03:20.668Z,33.80
2022-10-31T16:05:53.618Z,31.25
2022-10-31T16:08:29.675Z,35.97
2022-10-31T16:11:01.285Z,37.63
2022-10-31T16:13:34.120Z,37.70
2022-10-31T16:16:33.046Z,33.20
2022-10-31T16:18:53.198Z,37.85
2022-10-31T16:21:29.503Z,34.10
2022-10-31T16:24:06.365Z,31.52
2022-10-31T16:26:34.718Z,34.22
2022-10-31T16:29:05.131Z,34.22
2022-10-31T16:31:41.083Z,38.55
2022-10-31T16:34:26.317Z,39.35
2022-10-31T16:36:54.029Z,36.92
2022-10-31T16:39:21.347Z,35.67
2022-10-31T16:41:51.533Z,34.45
2022-10-31T16:44:20.173Z,30.42
2022-10-31T16:46:47.926Z,31.90
2022-10-31T16:49:16.521Z,36.08
2022-10-31T16:51:44.110Z,36.05
2022-10-31T16:54:11.818Z,30.35
2022-10-31T16:56:40.055Z,36.35
2022-10-31T16:59:15.814Z,29.77
2022-10-31T17:01:46.933Z,31.65
2022-10-31T17:04:15.325Z,40.75
2022-10-31T17:06:43.227Z,30.60
2022-10-31T17:09:10.773Z,26.38
2022-10-31T17:11:43.080Z,33.88
2022-10-31T17:14:12.438Z,25.10
2022-10-31T17:16:39.349Z,30.10
2022-10-31T17:19:06.221Z,33.40
2022-10-31T17:21:33.241Z,31.10
2022-10-31T17:24:00.166Z,28.90
2022-10-31T17:26:27.109Z,30.33
2022-10-31T17:28:54.190Z,24.88
2022-10-31T17:31:32.298Z,34.78
2022-10-31T17:34:02.557Z,27.45
2022-10-31T17:36:31.555Z,28.70
2022-10-31T17:38:58.554Z,29.00
2022-10-31T17:41:25.628Z,22.95
2022-10-31T17:43:56.596Z,28.75
2022-10-31T17:46:23.951Z,25.48
2022-10-31T17:48:51.009Z,24.42
2022-10-31T17:51:17.939Z,33.15
2022-10-31T17:53:44.860Z,26.52
2022-10-31T17:56:11.855Z,29.55
2022-10-31T17:58:38.799Z,25.85
2022-10-31T18:01:14.447Z,24.35
2022-10-31T18:03:42.187Z,23.27
2022-10-31T18:06:10.519Z,30.98
2022-10-31T18:08:39.204Z,25.92
2022-10-31T18:11:09.569Z,24.65
2022-10-31T18:13:37.454Z,25.83
2022-10-31T18:16:12.647Z,22.63
2022-10-31T18:18:40.123Z,28.00
2022-10-31T18:21:07.143Z,28.77
2022-10-31T18:23:34.285Z,31.83
2022-10-31T18:26:01.243Z,25.83
2022-10-31T18:28:28.245Z,30.77
2022-10-31T18:30:58.044Z,26.23
2022-10-31T18:33:24.975Z,27.58
2022-10-31T18:35:51.982Z,24.63
2022-10-31T18:38:18.903Z,26.70
2022-10-31T18:40:45.849Z,26.50
2022-10-31T18:43:14.428Z,25.65
2022-10-31T18:45:47.117Z,23.42
2022-10-31T18:48:16.145Z,29.80
2022-10-31T18:50:43.880Z,28.52
2022-10-31T18:53:10.836Z,26.25
2022-10-31T18:55:45.433Z,24.58
2022-10-31T18:58:17.123Z,27.88
2022-10-31T19:00:44.968Z,20.40
2022-10-31T19:03:12.391Z,19.42
2022-10-31T19:05:39.301Z,20.20
2022-10-31T19:08:06.248Z,23.92
2022-10-31T19:10:37.997Z,21.63
2022-10-31T19:13:05.851Z,25.48
2022-10-31T19:15:34.989Z,35.40
2022-10-31T19:18:03.536Z,32.30
2022-10-31T19:20:31.146Z,24.88
2022-10-31T19:23:01.229Z,24.15
2022-10-31T19:25:28.368Z,21.75
2022-10-31T19:27:55.310Z,31.88
2022-10-31T19:30:22.321Z,25.23
2022-10-31T19:32:53.481Z,36.08
2022-10-31T19:35:20.402Z,42.38
2022-10-31T19:37:47.264Z,31.83
2022-10-31T19:40:14.133Z,36.08
2022-10-31T19:42:41.065Z,26.98
2022-10-31T19:45:08.202Z,31.75
2022-10-31T19:47:35.128Z,28.88
2022-10-31T19:50:04.926Z,31.63
2022-10-31T19:52:35.724Z,26.67
2022-10-31T19:55:02.897Z,23.40
2022-10-31T19:57:56.123Z,27.50
2022-10-31T20:00:19.706Z,23.87
2022-10-31T20:02:46.764Z,35.73
2022-10-31T20:05:13.632Z,33.83
2022-10-31T20:07:40.474Z,32.83
2022-10-31T20:10:08.671Z,30.47
2022-10-31T20:12:35.552Z,24.70
2022-10-31T20:15:02.407Z,32.33
2022-10-31T20:17:29.348Z,39.17
2022-10-31T20:19:56.304Z,36.47
2022-10-31T20:22:23.199Z,32.27
2022-10-31T20:24:50.088Z,37.13
2022-10-31T20:27:17.007Z,41.03
2022-10-31T20:29:43.831Z,41.30
2022-10-31T20:32:10.756Z,37.10
2022-10-31T20:34:39.139Z,37.33
2022-10-31T20:37:06.186Z,44.27
2022-10-31T20:39:33.344Z,40.00
2022-10-31T20:42:00.275Z,34.30
2022-10-31T20:44:27.290Z,29.03
2022-10-31T20:46:54.290Z,33.60
2022-10-31T20:49:21.377Z,29.37
2022-10-31T20:51:48.257Z,30.23
2022-10-31T20:54:17.335Z,30.00
2022-10-31T20:56:44.443Z,32.90
2022-10-31T20:59:12.458Z,30.97
2022-10-31T21:01:39.625Z,28.07
2022-10-31T21:04:11.952Z,37.40
2022-10-31T21:06:39.399Z,32.03
2022-10-31T21:09:06.884Z,20.33
2022-10-31T21:11:33.850Z,24.33
2022-10-31T21:14:00.721Z,21.03
2022-10-31T21:16:31.244Z,23.87
2022-10-31T21:19:00.796Z,21.80
2022-10-31T21:21:32.533Z,25.20
2022-10-31T21:24:09.236Z,22.17
2022-10-31T21:26:40.114Z,20.17
2022-10-31T21:29:08.784Z,29.50
2022-10-31T21:31:37.302Z,27.10
2022-10-31T21:34:04.777Z,23.57
2022-10-31T21:36:32.134Z,26.60
2022-10-31T21:38:59.085Z,27.33
2022-10-31T21:41:27.149Z,23.57
2022-10-31T21:43:54.638Z,27.53
2022-10-31T21:46:24.524Z,22.33
2022-10-31T21:48:51.738Z,22.23
2022-10-31T21:51:30.765Z,26.40
2022-10-31T21:54:17.195Z,24.97
2022-10-31T21:56:44.697Z,26.30
2022-10-31T21:59:12.006Z,18.80
2022-10-31T22:01:39.345Z,20.60
2022-10-31T22:04:06.451Z,24.43
2022-10-31T22:06:33.650Z,24.93
2022-10-31T22:09:02.467Z,23.13
2022-10-31T22:11:30.129Z,22.63
2022-10-31T22:13:59.361Z,18.23
2022-10-31T22:16:27.578Z,19.53
2022-10-31T22:18:56.920Z,19.70
2022-10-31T22:21:25.826Z,21.97
2022-10-31T22:24:03.205Z,18.33
2022-10-31T22:26:32.725Z,16.87
2022-10-31T22:29:02.287Z,17.17
2022-10-31T22:31:30.602Z,17.40
2022-10-31T22:33:57.915Z,18.00
2022-10-31T22:36:27.416Z,22.63
2022-10-31T22:38:54.338Z,20.83
2022-10-31T22:41:29.765Z,22.60
2022-10-31T22:43:57.730Z,19.43
2022-10-31T22:46:28.103Z,23.33
2022-10-31T22:48:57.902Z,16.77
2022-10-31T22:51:25.986Z,19.13
2022-10-31T22:53:56.554Z,18.47
2022-10-31T22:56:25.817Z,20.33
2022-10-31T22:58:53.297Z,17.60
2022-10-31T23:01:26.330Z,16.07
2022-10-31T23:03:53.672Z,17.90
2022-10-31T23:06:22.906Z,29.47
2022-10-31T23:08:50.945Z,20.93
2022-10-31T23:11:18.929Z,23.53
2022-10-31T23:14:06.378Z,17.93
2022-10-31T23:16:33.975Z,17.27
2022-10-31T23:19:00.916Z,19.53
2022-10-31T23:21:46.758Z,18.63
2022-10-31T23:24:14.151Z,15.97
2022-10-31T23:26:59.454Z,14.90
2022-10-31T23:29:26.366Z,19.37
2022-10-31T23:31:55.982Z,18.87
2022-10-31T23:34:23.026Z,13.87
2022-10-31T23:36:50.145Z,15.00
2022-10-31T23:39:19.989Z,18.57
2022-10-31T23:41:49.900Z,17.57
2022-10-31T23:44:16.963Z,12.27
2022-10-31T23:46:43.899Z,15.30
2022-10-31T23:49:10.826Z,14.70
2022-10-31T23:51:39.348Z,14.17
2022-10-31T23:54:09.662Z,18.00
2022-10-31T23:56:36.668Z,14.20
2022-10-31T23:59:04.360Z,14.07
